Terminal Aerodrome Forecast
Issued by NWS Kansas City/Pleasant Hill, MO

Home | Current Version | Previous Version | Text Only | Print | Product List | Glossary On
Versions: 1 2 3 4 5 6 7 8 9 10 11 12 13 14 15 16 17 18 19 20 21
596
FTUS43 KEAX 191725
TAFMCI
TAF
KMCI 191725Z 1918/2018 16005KT 6SM BR OVC003
     FM200100 13004KT 3SM BR OVC002
     FM200900 10004KT 1/2SM FG OVC002
     FM201500 12005KT 1SM BR OVC003=

USA.gov is the U.S. government's official web portal to all federal, state and local government web resources and services.